sensor_id;sensor_type;location;lat;lon;timestamp;P1;durP1;ratioP1;P2;durP2;ratioP2
13951;SDS011;39535;52.192;9.886;2023-01-04T00:01:38;3.20;;;1.97;;
13951;SDS011;39535;52.192;9.886;2023-01-04T00:04:05;4.37;;;1.83;;
13951;SDS011;39535;52.192;9.886;2023-01-04T00:06:32;2.23;;;2.00;;
13951;SDS011;39535;52.192;9.886;2023-01-04T00:08:59;2.57;;;1.90;;
13951;SDS011;39535;52.192;9.886;2023-01-04T00:11:26;3.17;;;1.87;;
13951;SDS011;39535;52.192;9.886;2023-01-04T00:13:55;2.93;;;2.30;;
13951;SDS011;39535;52.192;9.886;2023-01-04T00:16:23;3.60;;;2.30;;
13951;SDS011;39535;52.192;9.886;2023-01-04T00:18:51;3.97;;;1.87;;
13951;SDS011;39535;52.192;9.886;2023-01-04T00:21:19;2.67;;;2.30;;
13951;SDS011;39535;52.192;9.886;2023-01-04T00:23:48;3.27;;;2.17;;
13951;SDS011;39535;52.192;9.886;2023-01-04T00:26:17;5.60;;;1.90;;
13951;SDS011;39535;52.192;9.886;2023-01-04T00:28:46;3.77;;;2.40;;
13951;SDS011;39535;52.192;9.886;2023-01-04T00:31:13;4.77;;;2.30;;
13951;SDS011;39535;52.192;9.886;2023-01-04T00:33:41;2.90;;;2.00;;
13951;SDS011;39535;52.192;9.886;2023-01-04T00:36:08;3.70;;;2.53;;
13951;SDS011;39535;52.192;9.886;2023-01-04T00:38:36;3.53;;;1.97;;
13951;SDS011;39535;52.192;9.886;2023-01-04T00:41:05;3.13;;;2.67;;
13951;SDS011;39535;52.192;9.886;2023-01-04T00:43:32;3.07;;;2.10;;
13951;SDS011;39535;52.192;9.886;2023-01-04T00:45:59;3.93;;;1.90;;
13951;SDS011;39535;52.192;9.886;2023-01-04T00:48:26;3.57;;;2.90;;
13951;SDS011;39535;52.192;9.886;2023-01-04T00:50:52;3.20;;;2.27;;
13951;SDS011;39535;52.192;9.886;2023-01-04T00:53:19;2.83;;;2.53;;
13951;SDS011;39535;52.192;9.886;2023-01-04T00:55:45;4.10;;;2.47;;
13951;SDS011;39535;52.192;9.886;2023-01-04T00:58:13;5.60;;;3.30;;
13951;SDS011;39535;52.192;9.886;2023-01-04T01:00:39;6.07;;;3.00;;
13951;SDS011;39535;52.192;9.886;2023-01-04T01:03:06;3.67;;;2.47;;
13951;SDS011;39535;52.192;9.886;2023-01-04T01:05:32;2.97;;;2.30;;
13951;SDS011;39535;52.192;9.886;2023-01-04T01:08:00;5.83;;;2.93;;
13951;SDS011;39535;52.192;9.886;2023-01-04T01:10:47;3.37;;;2.57;;
13951;SDS011;39535;52.192;9.886;2023-01-04T01:13:14;4.47;;;3.47;;
13951;SDS011;39535;52.192;9.886;2023-01-04T01:15:41;2.83;;;2.40;;
13951;SDS011;39535;52.192;9.886;2023-01-04T01:18:07;4.50;;;2.57;;
13951;SDS011;39535;52.192;9.886;2023-01-04T01:20:33;5.50;;;2.70;;
13951;SDS011;39535;52.192;9.886;2023-01-04T01:23:00;5.80;;;3.27;;
13951;SDS011;39535;52.192;9.886;2023-01-04T01:25:26;3.13;;;2.70;;
13951;SDS011;39535;52.192;9.886;2023-01-04T01:27:53;3.70;;;2.40;;
13951;SDS011;39535;52.192;9.886;2023-01-04T01:30:20;4.87;;;3.23;;
13951;SDS011;39535;52.192;9.886;2023-01-04T01:32:47;3.93;;;2.57;;
13951;SDS011;39535;52.192;9.886;2023-01-04T01:35:13;4.43;;;2.73;;
13951;SDS011;39535;52.192;9.886;2023-01-04T01:37:39;5.10;;;2.23;;
13951;SDS011;39535;52.192;9.886;2023-01-04T01:40:06;2.97;;;2.30;;
13951;SDS011;39535;52.192;9.886;2023-01-04T01:42:33;3.87;;;2.40;;
13951;SDS011;39535;52.192;9.886;2023-01-04T01:45:01;2.53;;;2.13;;
13951;SDS011;39535;52.192;9.886;2023-01-04T01:47:37;2.70;;;2.33;;
13951;SDS011;39535;52.192;9.886;2023-01-04T01:50:14;2.57;;;2.17;;
13951;SDS011;39535;52.192;9.886;2023-01-04T01:52:47;2.90;;;2.10;;
13951;SDS011;39535;52.192;9.886;2023-01-04T01:55:14;3.40;;;1.90;;
13951;SDS011;39535;52.192;9.886;2023-01-04T01:57:41;3.10;;;1.90;;
13951;SDS011;39535;52.192;9.886;2023-01-04T02:00:11;3.27;;;1.70;;
13951;SDS011;39535;52.192;9.886;2023-01-04T02:02:41;2.53;;;1.63;;
13951;SDS011;39535;52.192;9.886;2023-01-04T02:05:14;3.33;;;2.10;;
13951;SDS011;39535;52.192;9.886;2023-01-04T02:07:42;6.60;;;1.70;;
13951;SDS011;39535;52.192;9.886;2023-01-04T02:10:09;2.90;;;2.40;;
13951;SDS011;39535;52.192;9.886;2023-01-04T02:12:36;3.93;;;1.90;;
13951;SDS011;39535;52.192;9.886;2023-01-04T02:15:03;4.70;;;2.00;;
13951;SDS011;39535;52.192;9.886;2023-01-04T02:17:33;3.57;;;1.77;;
13951;SDS011;39535;52.192;9.886;2023-01-04T02:20:09;2.23;;;1.67;;
13951;SDS011;39535;52.192;9.886;2023-01-04T02:32:15;5.17;;;2.17;;
13951;SDS011;39535;52.192;9.886;2023-01-04T02:34:49;3.87;;;2.13;;
13951;SDS011;39535;52.192;9.886;2023-01-04T02:37:23;3.30;;;2.10;;
13951;SDS011;39535;52.192;9.886;2023-01-04T02:40:02;1.73;;;1.63;;
13951;SDS011;39535;52.192;9.886;2023-01-04T02:42:35;4.37;;;1.90;;
13951;SDS011;39535;52.192;9.886;2023-01-04T02:45:28;4.33;;;2.03;;
13951;SDS011;39535;52.192;9.886;2023-01-04T02:48:01;4.83;;;2.30;;
13951;SDS011;39535;52.192;9.886;2023-01-04T02:50:49;3.80;;;2.80;;
13951;SDS011;39535;52.192;9.886;2023-01-04T02:53:17;3.23;;;2.23;;
13951;SDS011;39535;52.192;9.886;2023-01-04T02:55:48;3.30;;;2.07;;
13951;SDS011;39535;52.192;9.886;2023-01-04T02:58:35;6.23;;;2.57;;
13951;SDS011;39535;52.192;9.886;2023-01-04T03:01:23;4.07;;;2.10;;
13951;SDS011;39535;52.192;9.886;2023-01-04T03:04:18;5.20;;;2.00;;
13951;SDS011;39535;52.192;9.886;2023-01-04T03:07:16;2.77;;;2.07;;
13951;SDS011;39535;52.192;9.886;2023-01-04T03:09:49;2.53;;;2.07;;
13951;SDS011;39535;52.192;9.886;2023-01-04T03:12:24;2.27;;;2.00;;
13951;SDS011;39535;52.192;9.886;2023-01-04T03:15:00;2.63;;;2.10;;
13951;SDS011;39535;52.192;9.886;2023-01-04T03:17:34;2.57;;;2.23;;
13951;SDS011;39535;52.192;9.886;2023-01-04T03:20:08;3.50;;;2.07;;
13951;SDS011;39535;52.192;9.886;2023-01-04T03:22:38;4.57;;;2.17;;
13951;SDS011;39535;52.192;9.886;2023-01-04T03:25:25;2.83;;;1.83;;
13951;SDS011;39535;52.192;9.886;2023-01-04T03:28:13;2.43;;;1.90;;
13951;SDS011;39535;52.192;9.886;2023-01-04T03:31:01;2.97;;;2.07;;
13951;SDS011;39535;52.192;9.886;2023-01-04T03:33:51;4.03;;;2.10;;
13951;SDS011;39535;52.192;9.886;2023-01-04T03:36:39;5.87;;;2.17;;
13951;SDS011;39535;52.192;9.886;2023-01-04T03:39:12;3.13;;;2.03;;
13951;SDS011;39535;52.192;9.886;2023-01-04T03:42:04;3.53;;;1.90;;
13951;SDS011;39535;52.192;9.886;2023-01-04T03:44:55;2.77;;;2.10;;
13951;SDS011;39535;52.192;9.886;2023-01-04T03:47:47;2.33;;;1.77;;
13951;SDS011;39535;52.192;9.886;2023-01-04T03:50:40;2.87;;;1.67;;
13951;SDS011;39535;52.192;9.886;2023-01-04T03:53:13;2.67;;;1.77;;
13951;SDS011;39535;52.192;9.886;2023-01-04T03:55:40;2.30;;;1.97;;
13951;SDS011;39535;52.192;9.886;2023-01-04T03:58:08;2.90;;;1.70;;
13951;SDS011;39535;52.192;9.886;2023-01-04T04:00:36;3.07;;;1.90;;
13951;SDS011;39535;52.192;9.886;2023-01-04T04:03:04;2.93;;;1.70;;
13951;SDS011;39535;52.192;9.886;2023-01-04T04:05:37;2.87;;;1.50;;
13951;SDS011;39535;52.192;9.886;2023-01-04T04:08:23;3.63;;;1.60;;
13951;SDS011;39535;52.192;9.886;2023-01-04T04:10:50;4.73;;;1.90;;
13951;SDS011;39535;52.192;9.886;2023-01-04T04:13:17;2.00;;;1.57;;
13951;SDS011;39535;52.192;9.886;2023-01-04T04:15:44;3.50;;;1.90;;
13951;SDS011;39535;52.192;9.886;2023-01-04T04:18:10;3.10;;;2.03;;
13951;SDS011;39535;52.192;9.886;2023-01-04T04:20:36;2.63;;;1.80;;
13951;SDS011;39535;52.192;9.886;2023-01-04T04:23:03;2.67;;;2.27;;
13951;SDS011;39535;52.192;9.886;2023-01-04T04:25:30;4.93;;;1.90;;
13951;SDS011;39535;52.192;9.886;2023-01-04T04:27:57;3.60;;;2.27;;
13951;SDS011;39535;52.192;9.886;2023-01-04T04:30:23;1.83;;;1.67;;
13951;SDS011;39535;52.192;9.886;2023-01-04T04:32:49;1.93;;;1.80;;
13951;SDS011;39535;52.192;9.886;2023-01-04T04:35:16;3.20;;;2.17;;
13951;SDS011;39535;52.192;9.886;2023-01-04T04:37:42;2.80;;;2.00;;
13951;SDS011;39535;52.192;9.886;2023-01-04T04:40:09;3.37;;;1.70;;
13951;SDS011;39535;52.192;9.886;2023-01-04T04:42:58;3.53;;;1.87;;
13951;SDS011;39535;52.192;9.886;2023-01-04T04:45:23;5.67;;;2.30;;
13951;SDS011;39535;52.192;9.886;2023-01-04T04:47:49;3.37;;;1.63;;
13951;SDS011;39535;52.192;9.886;2023-01-04T04:50:16;2.00;;;1.90;;
13951;SDS011;39535;52.192;9.886;2023-01-04T04:52:42;3.03;;;2.40;;
13951;SDS011;39535;52.192;9.886;2023-01-04T04:55:08;2.17;;;1.97;;
13951;SDS011;39535;52.192;9.886;2023-01-04T04:57:35;2.80;;;2.03;;
13951;SDS011;39535;52.192;9.886;2023-01-04T05:00:03;2.97;;;1.73;;
13951;SDS011;39535;52.192;9.886;2023-01-04T05:02:30;2.93;;;1.70;;
13951;SDS011;39535;52.192;9.886;2023-01-04T05:04:56;4.07;;;2.07;;
13951;SDS011;39535;52.192;9.886;2023-01-04T05:07:22;2.43;;;2.00;;
13951;SDS011;39535;52.192;9.886;2023-01-04T05:09:49;3.10;;;1.70;;
13951;SDS011;39535;52.192;9.886;2023-01-04T05:12:15;1.97;;;1.57;;
13951;SDS011;39535;52.192;9.886;2023-01-04T05:14:59;2.53;;;1.70;;
13951;SDS011;39535;52.192;9.886;2023-01-04T05:17:26;1.43;;;1.33;;
13951;SDS011;39535;52.192;9.886;2023-01-04T05:19:52;3.63;;;1.53;;
13951;SDS011;39535;52.192;9.886;2023-01-04T05:22:19;3.53;;;2.00;;
13951;SDS011;39535;52.192;9.886;2023-01-04T05:24:45;2.33;;;1.80;;
13951;SDS011;39535;52.192;9.886;2023-01-04T05:27:11;2.93;;;1.60;;
13951;SDS011;39535;52.192;9.886;2023-01-04T05:29:38;1.70;;;1.60;;
13951;SDS011;39535;52.192;9.886;2023-01-04T05:32:22;2.10;;;1.37;;
13951;SDS011;39535;52.192;9.886;2023-01-04T05:34:49;1.93;;;1.70;;
13951;SDS011;39535;52.192;9.886;2023-01-04T05:37:16;1.90;;;1.67;;
13951;SDS011;39535;52.192;9.886;2023-01-04T05:39:42;1.70;;;1.60;;
13951;SDS011;39535;52.192;9.886;2023-01-04T05:42:08;2.47;;;1.70;;
13951;SDS011;39535;52.192;9.886;2023-01-04T05:44:50;2.03;;;1.43;;
13951;SDS011;39535;52.192;9.886;2023-01-04T05:47:16;1.70;;;1.53;;
13951;SDS011;39535;52.192;9.886;2023-01-04T05:49:43;1.73;;;1.50;;
13951;SDS011;39535;52.192;9.886;2023-01-04T05:52:10;2.10;;;1.53;;
13951;SDS011;39535;52.192;9.886;2023-01-04T05:54:37;3.93;;;1.60;;
13951;SDS011;39535;52.192;9.886;2023-01-04T05:57:03;2.37;;;1.50;;
13951;SDS011;39535;52.192;9.886;2023-01-04T05:59:29;1.87;;;1.33;;
13951;SDS011;39535;52.192;9.886;2023-01-04T06:01:56;2.53;;;1.50;;
13951;SDS011;39535;52.192;9.886;2023-01-04T06:04:23;1.40;;;1.30;;
13951;SDS011;39535;52.192;9.886;2023-01-04T06:06:49;2.17;;;1.53;;
13951;SDS011;39535;52.192;9.886;2023-01-04T06:09:17;1.87;;;1.40;;
13951;SDS011;39535;52.192;9.886;2023-01-04T06:11:43;1.50;;;1.13;;
13951;SDS011;39535;52.192;9.886;2023-01-04T06:14:10;1.70;;;1.60;;
13951;SDS011;39535;52.192;9.886;2023-01-04T06:16:36;2.67;;;1.57;;
13951;SDS011;39535;52.192;9.886;2023-01-04T06:19:03;1.93;;;1.83;;
13951;SDS011;39535;52.192;9.886;2023-01-04T06:21:29;1.33;;;1.23;;
13951;SDS011;39535;52.192;9.886;2023-01-04T06:23:55;1.60;;;1.50;;
13951;SDS011;39535;52.192;9.886;2023-01-04T06:26:23;1.57;;;1.20;;
13951;SDS011;39535;52.192;9.886;2023-01-04T06:28:49;1.53;;;1.40;;
13951;SDS011;39535;52.192;9.886;2023-01-04T06:31:16;2.30;;;1.30;;
13951;SDS011;39535;52.192;9.886;2023-01-04T06:33:42;1.40;;;1.30;;
13951;SDS011;39535;52.192;9.886;2023-01-04T06:36:08;1.53;;;1.43;;
13951;SDS011;39535;52.192;9.886;2023-01-04T06:38:35;1.90;;;1.30;;
13951;SDS011;39535;52.192;9.886;2023-01-04T06:41:01;1.43;;;1.33;;
13951;SDS011;39535;52.192;9.886;2023-01-04T06:43:29;1.40;;;1.23;;
13951;SDS011;39535;52.192;9.886;2023-01-04T06:45:55;2.03;;;1.30;;
13951;SDS011;39535;52.192;9.886;2023-01-04T06:48:21;1.40;;;1.27;;
13951;SDS011;39535;52.192;9.886;2023-01-04T06:50:48;1.50;;;1.40;;
13951;SDS011;39535;52.192;9.886;2023-01-04T06:53:14;1.50;;;1.40;;
13951;SDS011;39535;52.192;9.886;2023-01-04T06:55:41;2.17;;;1.40;;
13951;SDS011;39535;52.192;9.886;2023-01-04T06:58:08;1.10;;;1.00;;
13951;SDS011;39535;52.192;9.886;2023-01-04T07:00:36;2.87;;;1.20;;
13951;SDS011;39535;52.192;9.886;2023-01-04T07:03:02;0.93;;;0.93;;
13951;SDS011;39535;52.192;9.886;2023-01-04T07:05:29;1.80;;;1.37;;
13951;SDS011;39535;52.192;9.886;2023-01-04T07:07:55;1.30;;;1.10;;
13951;SDS011;39535;52.192;9.886;2023-01-04T07:10:24;1.07;;;1.00;;
13951;SDS011;39535;52.192;9.886;2023-01-04T07:12:50;1.20;;;1.10;;
13951;SDS011;39535;52.192;9.886;2023-01-04T07:15:17;1.97;;;1.27;;
13951;SDS011;39535;52.192;9.886;2023-01-04T07:17:47;2.10;;;1.20;;
13951;SDS011;39535;52.192;9.886;2023-01-04T07:20:14;2.67;;;1.10;;
13951;SDS011;39535;52.192;9.886;2023-01-04T07:22:40;1.20;;;1.07;;
13951;SDS011;39535;52.192;9.886;2023-01-04T07:25:07;1.37;;;1.20;;
13951;SDS011;39535;52.192;9.886;2023-01-04T07:27:34;1.47;;;1.20;;
13951;SDS011;39535;52.192;9.886;2023-01-04T07:30:00;2.00;;;1.10;;
13951;SDS011;39535;52.192;9.886;2023-01-04T07:32:26;1.97;;;1.03;;
13951;SDS011;39535;52.192;9.886;2023-01-04T07:34:54;1.20;;;1.10;;
13951;SDS011;39535;52.192;9.886;2023-01-04T07:37:20;1.23;;;1.13;;
13951;SDS011;39535;52.192;9.886;2023-01-04T07:39:47;1.03;;;1.03;;
13951;SDS011;39535;52.192;9.886;2023-01-04T07:42:13;1.63;;;1.00;;
13951;SDS011;39535;52.192;9.886;2023-01-04T07:44:40;1.10;;;0.90;;
13951;SDS011;39535;52.192;9.886;2023-01-04T07:47:06;0.90;;;0.90;;
13951;SDS011;39535;52.192;9.886;2023-01-04T07:49:32;0.77;;;0.77;;
13951;SDS011;39535;52.192;9.886;2023-01-04T07:52:00;1.67;;;0.80;;
13951;SDS011;39535;52.192;9.886;2023-01-04T07:54:26;1.70;;;1.13;;
13951;SDS011;39535;52.192;9.886;2023-01-04T07:56:53;0.87;;;0.87;;
13951;SDS011;39535;52.192;9.886;2023-01-04T07:59:19;0.80;;;0.73;;
13951;SDS011;39535;52.192;9.886;2023-01-04T08:01:46;0.80;;;0.70;;
13951;SDS011;39535;52.192;9.886;2023-01-04T08:04:14;0.80;;;0.80;;
13951;SDS011;39535;52.192;9.886;2023-01-04T08:06:42;0.63;;;0.60;;
13951;SDS011;39535;52.192;9.886;2023-01-04T08:09:12;0.73;;;0.73;;
13951;SDS011;39535;52.192;9.886;2023-01-04T08:11:38;1.60;;;1.00;;
13951;SDS011;39535;52.192;9.886;2023-01-04T08:14:05;1.17;;;0.97;;
13951;SDS011;39535;52.192;9.886;2023-01-04T08:16:32;0.83;;;0.83;;
13951;SDS011;39535;52.192;9.886;2023-01-04T08:19:00;0.77;;;0.77;;
13951;SDS011;39535;52.192;9.886;2023-01-04T08:21:29;1.53;;;1.00;;
13951;SDS011;39535;52.192;9.886;2023-01-04T08:23:57;1.10;;;0.70;;
13951;SDS011;39535;52.192;9.886;2023-01-04T08:26:24;1.27;;;0.70;;
13951;SDS011;39535;52.192;9.886;2023-01-04T08:28:52;0.90;;;0.70;;
13951;SDS011;39535;52.192;9.886;2023-01-04T08:31:21;1.00;;;0.83;;
13951;SDS011;39535;52.192;9.886;2023-01-04T08:33:49;1.03;;;0.80;;
13951;SDS011;39535;52.192;9.886;2023-01-04T08:36:16;1.73;;;0.97;;
13951;SDS011;39535;52.192;9.886;2023-01-04T08:38:44;1.57;;;0.80;;
13951;SDS011;39535;52.192;9.886;2023-01-04T08:41:11;0.87;;;0.87;;
13951;SDS011;39535;52.192;9.886;2023-01-04T08:43:39;1.27;;;0.80;;
13951;SDS011;39535;52.192;9.886;2023-01-04T08:46:06;1.80;;;0.70;;
13951;SDS011;39535;52.192;9.886;2023-01-04T08:48:33;0.90;;;0.80;;
13951;SDS011;39535;52.192;9.886;2023-01-04T08:51:00;0.93;;;0.90;;
13951;SDS011;39535;52.192;9.886;2023-01-04T08:53:29;0.70;;;0.70;;
13951;SDS011;39535;52.192;9.886;2023-01-04T08:55:56;0.80;;;0.80;;
13951;SDS011;39535;52.192;9.886;2023-01-04T08:58:24;2.07;;;0.90;;
13951;SDS011;39535;52.192;9.886;2023-01-04T09:00:52;1.07;;;0.97;;
13951;SDS011;39535;52.192;9.886;2023-01-04T09:03:19;1.47;;;0.70;;
13951;SDS011;39535;52.192;9.886;2023-01-04T09:05:45;0.97;;;0.90;;
13951;SDS011;39535;52.192;9.886;2023-01-04T09:08:11;0.80;;;0.80;;
13951;SDS011;39535;52.192;9.886;2023-01-04T09:10:38;0.90;;;0.90;;
13951;SDS011;39535;52.192;9.886;2023-01-04T09:13:05;1.80;;;1.17;;
13951;SDS011;39535;52.192;9.886;2023-01-04T09:15:31;1.20;;;1.10;;
13951;SDS011;39535;52.192;9.886;2023-01-04T09:17:59;1.27;;;0.90;;
13951;SDS011;39535;52.192;9.886;2023-01-04T09:20:25;7.90;;;1.10;;
13951;SDS011;39535;52.192;9.886;2023-01-04T09:22:52;1.20;;;1.00;;
13951;SDS011;39535;52.192;9.886;2023-01-04T09:25:18;1.03;;;0.90;;
13951;SDS011;39535;52.192;9.886;2023-01-04T09:27:45;1.10;;;1.00;;
13951;SDS011;39535;52.192;9.886;2023-01-04T09:30:11;0.80;;;0.80;;
13951;SDS011;39535;52.192;9.886;2023-01-04T09:32:38;1.10;;;1.00;;
13951;SDS011;39535;52.192;9.886;2023-01-04T09:35:06;1.03;;;0.87;;
13951;SDS011;39535;52.192;9.886;2023-01-04T09:37:33;0.90;;;0.90;;
13951;SDS011;39535;52.192;9.886;2023-01-04T09:39:59;0.80;;;0.80;;
13951;SDS011;39535;52.192;9.886;2023-01-04T09:42:26;2.07;;;1.00;;
13951;SDS011;39535;52.192;9.886;2023-01-04T09:44:57;0.77;;;0.77;;
13951;SDS011;39535;52.192;9.886;2023-01-04T09:47:31;0.87;;;0.70;;
13951;SDS011;39535;52.192;9.886;2023-01-04T09:50:02;1.07;;;0.90;;
13951;SDS011;39535;52.192;9.886;2023-01-04T09:52:45;1.83;;;1.10;;
13951;SDS011;39535;52.192;9.886;2023-01-04T09:55:27;0.80;;;0.80;;
13951;SDS011;39535;52.192;9.886;2023-01-04T09:57:58;0.80;;;0.80;;
13951;SDS011;39535;52.192;9.886;2023-01-04T10:00:28;0.77;;;0.77;;
13951;SDS011;39535;52.192;9.886;2023-01-04T10:02:59;0.80;;;0.80;;
13951;SDS011;39535;52.192;9.886;2023-01-04T10:05:33;1.10;;;0.80;;
13951;SDS011;39535;52.192;9.886;2023-01-04T10:08:00;2.00;;;0.80;;
13951;SDS011;39535;52.192;9.886;2023-01-04T10:10:33;1.43;;;0.60;;
13951;SDS011;39535;52.192;9.886;2023-01-04T10:13:12;0.97;;;0.77;;
13951;SDS011;39535;52.192;9.886;2023-01-04T10:15:50;0.90;;;0.90;;
13951;SDS011;39535;52.192;9.886;2023-01-04T10:18:25;0.60;;;0.60;;
13951;SDS011;39535;52.192;9.886;2023-01-04T10:21:09;0.60;;;0.40;;
13951;SDS011;39535;52.192;9.886;2023-01-04T10:23:50;0.50;;;0.50;;
13951;SDS011;39535;52.192;9.886;2023-01-04T10:26:24;0.90;;;0.63;;
13951;SDS011;39535;52.192;9.886;2023-01-04T10:29:08;0.70;;;0.70;;
13951;SDS011;39535;52.192;9.886;2023-01-04T10:31:59;0.70;;;0.70;;
13951;SDS011;39535;52.192;9.886;2023-01-04T10:34:30;0.83;;;0.50;;
13951;SDS011;39535;52.192;9.886;2023-01-04T10:37:17;0.90;;;0.90;;
13951;SDS011;39535;52.192;9.886;2023-01-04T10:39:45;0.50;;;0.50;;
13951;SDS011;39535;52.192;9.886;2023-01-04T10:42:17;0.70;;;0.70;;
13951;SDS011;39535;52.192;9.886;2023-01-04T10:44:58;0.60;;;0.60;;
13951;SDS011;39535;52.192;9.886;2023-01-04T10:47:33;0.50;;;0.50;;
13951;SDS011;39535;52.192;9.886;2023-01-04T10:50:07;0.50;;;0.50;;
13951;SDS011;39535;52.192;9.886;2023-01-04T10:52:41;0.70;;;0.70;;
13951;SDS011;39535;52.192;9.886;2023-01-04T10:55:11;1.00;;;0.90;;
13951;SDS011;39535;52.192;9.886;2023-01-04T10:57:45;1.17;;;0.70;;
13951;SDS011;39535;52.192;9.886;2023-01-04T11:00:18;1.17;;;0.63;;
13951;SDS011;39535;52.192;9.886;2023-01-04T11:02:49;1.90;;;0.90;;
13951;SDS011;39535;52.192;9.886;2023-01-04T11:05:21;0.80;;;0.80;;
13951;SDS011;39535;52.192;9.886;2023-01-04T11:07:52;0.60;;;0.60;;
13951;SDS011;39535;52.192;9.886;2023-01-04T11:10:23;0.77;;;0.70;;
13951;SDS011;39535;52.192;9.886;2023-01-04T11:12:53;1.63;;;0.80;;
13951;SDS011;39535;52.192;9.886;2023-01-04T11:15:19;0.73;;;0.63;;
13951;SDS011;39535;52.192;9.886;2023-01-04T11:17:46;0.70;;;0.70;;
13951;SDS011;39535;52.192;9.886;2023-01-04T11:20:13;0.77;;;0.70;;
13951;SDS011;39535;52.192;9.886;2023-01-04T11:22:39;0.70;;;0.70;;
13951;SDS011;39535;52.192;9.886;2023-01-04T11:25:13;1.47;;;0.70;;
13951;SDS011;39535;52.192;9.886;2023-01-04T11:27:45;0.80;;;0.80;;
13951;SDS011;39535;52.192;9.886;2023-01-04T11:30:16;0.47;;;0.47;;
13951;SDS011;39535;52.192;9.886;2023-01-04T11:32:50;0.70;;;0.70;;
13951;SDS011;39535;52.192;9.886;2023-01-04T11:35:38;2.10;;;0.60;;
13951;SDS011;39535;52.192;9.886;2023-01-04T11:38:08;0.80;;;0.80;;
13951;SDS011;39535;52.192;9.886;2023-01-04T11:40:39;0.60;;;0.60;;
13951;SDS011;39535;52.192;9.886;2023-01-04T11:43:13;0.60;;;0.60;;
13951;SDS011;39535;52.192;9.886;2023-01-04T11:45:51;0.67;;;0.60;;
13951;SDS011;39535;52.192;9.886;2023-01-04T11:48:19;0.80;;;0.40;;
13951;SDS011;39535;52.192;9.886;2023-01-04T11:50:56;0.80;;;0.57;;
13951;SDS011;39535;52.192;9.886;2023-01-04T11:53:27;1.17;;;0.40;;
13951;SDS011;39535;52.192;9.886;2023-01-04T11:59:09;1.23;;;0.57;;
13951;SDS011;39535;52.192;9.886;2023-01-04T12:01:38;0.60;;;0.60;;
13951;SDS011;39535;52.192;9.886;2023-01-04T12:04:10;0.70;;;0.70;;
13951;SDS011;39535;52.192;9.886;2023-01-04T12:06:39;0.50;;;0.50;;
13951;SDS011;39535;52.192;9.886;2023-01-04T12:09:11;0.40;;;0.40;;
13951;SDS011;39535;52.192;9.886;2023-01-04T12:11:40;1.07;;;0.50;;
13951;SDS011;39535;52.192;9.886;2023-01-04T12:14:15;0.47;;;0.47;;
13951;SDS011;39535;52.192;9.886;2023-01-04T12:16:46;1.00;;;0.40;;
13951;SDS011;39535;52.192;9.886;2023-01-04T12:19:17;0.40;;;0.40;;
13951;SDS011;39535;52.192;9.886;2023-01-04T12:21:47;0.80;;;0.50;;
13951;SDS011;39535;52.192;9.886;2023-01-04T12:24:16;0.40;;;0.40;;
13951;SDS011;39535;52.192;9.886;2023-01-04T12:26:47;0.47;;;0.47;;
13951;SDS011;39535;52.192;9.886;2023-01-04T12:29:40;0.50;;;0.47;;
13951;SDS011;39535;52.192;9.886;2023-01-04T12:41:23;0.37;;;0.30;;
13951;SDS011;39535;52.192;9.886;2023-01-04T12:47:40;1.07;;;0.40;;
13951;SDS011;39535;52.192;9.886;2023-01-04T12:50:25;0.20;;;0.20;;
13951;SDS011;39535;52.192;9.886;2023-01-04T12:52:53;1.10;;;0.50;;
13951;SDS011;39535;52.192;9.886;2023-01-04T13:01:17;0.30;;;0.30;;
13951;SDS011;39535;52.192;9.886;2023-01-04T13:03:48;0.20;;;0.20;;
13951;SDS011;39535;52.192;9.886;2023-01-04T13:06:20;0.30;;;0.30;;
13951;SDS011;39535;52.192;9.886;2023-01-04T13:08:48;0.30;;;0.20;;
13951;SDS011;39535;52.192;9.886;2023-01-04T13:11:21;0.20;;;0.20;;
13951;SDS011;39535;52.192;9.886;2023-01-04T13:13:59;0.20;;;0.20;;
13951;SDS011;39535;52.192;9.886;2023-01-04T13:16:33;0.83;;;0.30;;
13951;SDS011;39535;52.192;9.886;2023-01-04T13:19:08;0.20;;;0.20;;
13951;SDS011;39535;52.192;9.886;2023-01-04T13:21:37;0.20;;;0.20;;
13951;SDS011;39535;52.192;9.886;2023-01-04T13:26:32;0.20;;;0.20;;
13951;SDS011;39535;52.192;9.886;2023-01-04T13:29:13;0.20;;;0.20;;
13951;SDS011;39535;52.192;9.886;2023-01-04T13:31:57;0.30;;;0.30;;
13951;SDS011;39535;52.192;9.886;2023-01-04T13:34:25;0.27;;;0.27;;
13951;SDS011;39535;52.192;9.886;2023-01-04T13:36:57;0.30;;;0.30;;
13951;SDS011;39535;52.192;9.886;2023-01-04T13:39:29;0.40;;;0.40;;
13951;SDS011;39535;52.192;9.886;2023-01-04T13:41:56;0.93;;;0.20;;
13951;SDS011;39535;52.192;9.886;2023-01-04T13:44:25;0.20;;;0.20;;
13951;SDS011;39535;52.192;9.886;2023-01-04T13:47:25;0.27;;;0.27;;
13951;SDS011;39535;52.192;9.886;2023-01-04T13:49:52;0.20;;;0.20;;
13951;SDS011;39535;52.192;9.886;2023-01-04T13:52:19;0.20;;;0.20;;
13951;SDS011;39535;52.192;9.886;2023-01-04T13:55:11;0.20;;;0.20;;
13951;SDS011;39535;52.192;9.886;2023-01-04T13:57:50;0.50;;;0.50;;
13951;SDS011;39535;52.192;9.886;2023-01-04T14:00:17;0.93;;;0.93;;
13951;SDS011;39535;52.192;9.886;2023-01-04T14:02:45;0.30;;;0.30;;
13951;SDS011;39535;52.192;9.886;2023-01-04T14:05:13;0.30;;;0.30;;
13951;SDS011;39535;52.192;9.886;2023-01-04T14:07:41;1.33;;;0.80;;
13951;SDS011;39535;52.192;9.886;2023-01-04T14:10:12;0.20;;;0.20;;
13951;SDS011;39535;52.192;9.886;2023-01-04T14:12:42;0.50;;;0.30;;
13951;SDS011;39535;52.192;9.886;2023-01-04T14:15:13;0.57;;;0.30;;
13951;SDS011;39535;52.192;9.886;2023-01-04T14:17:47;0.30;;;0.30;;
13951;SDS011;39535;52.192;9.886;2023-01-04T14:23:03;0.83;;;0.30;;
13951;SDS011;39535;52.192;9.886;2023-01-04T14:31:13;1.40;;;0.50;;
13951;SDS011;39535;52.192;9.886;2023-01-04T14:33:46;0.97;;;0.40;;
13951;SDS011;39535;52.192;9.886;2023-01-04T14:36:17;0.33;;;0.33;;
13951;SDS011;39535;52.192;9.886;2023-01-04T14:38:47;0.40;;;0.40;;
13951;SDS011;39535;52.192;9.886;2023-01-04T14:41:21;0.80;;;0.60;;
13951;SDS011;39535;52.192;9.886;2023-01-04T14:43:50;0.40;;;0.40;;
13951;SDS011;39535;52.192;9.886;2023-01-04T14:46:18;0.77;;;0.40;;
13951;SDS011;39535;52.192;9.886;2023-01-04T14:48:44;0.77;;;0.73;;
13951;SDS011;39535;52.192;9.886;2023-01-04T14:51:13;0.30;;;0.30;;
13951;SDS011;39535;52.192;9.886;2023-01-04T14:53:42;0.43;;;0.43;;
13951;SDS011;39535;52.192;9.886;2023-01-04T14:56:10;1.40;;;0.50;;
13951;SDS011;39535;52.192;9.886;2023-01-04T14:58:37;1.07;;;0.60;;
13951;SDS011;39535;52.192;9.886;2023-01-04T15:01:04;0.93;;;0.73;;
13951;SDS011;39535;52.192;9.886;2023-01-04T15:03:30;1.53;;;0.80;;
13951;SDS011;39535;52.192;9.886;2023-01-04T15:05:56;0.70;;;0.70;;
13951;SDS011;39535;52.192;9.886;2023-01-04T15:08:24;0.60;;;0.60;;
13951;SDS011;39535;52.192;9.886;2023-01-04T15:10:51;0.50;;;0.50;;
13951;SDS011;39535;52.192;9.886;2023-01-04T15:13:17;0.90;;;0.90;;
13951;SDS011;39535;52.192;9.886;2023-01-04T15:15:43;1.20;;;1.10;;
13951;SDS011;39535;52.192;9.886;2023-01-04T15:18:10;1.33;;;1.23;;
13951;SDS011;39535;52.192;9.886;2023-01-04T15:20:37;1.77;;;1.67;;
13951;SDS011;39535;52.192;9.886;2023-01-04T15:23:05;2.83;;;1.60;;
13951;SDS011;39535;52.192;9.886;2023-01-04T15:25:33;2.33;;;2.07;;
13951;SDS011;39535;52.192;9.886;2023-01-04T15:28:00;2.60;;;2.40;;
13951;SDS011;39535;52.192;9.886;2023-01-04T15:30:26;2.57;;;1.97;;
13951;SDS011;39535;52.192;9.886;2023-01-04T15:32:53;2.60;;;2.30;;
13951;SDS011;39535;52.192;9.886;2023-01-04T15:35:19;3.20;;;2.00;;
13951;SDS011;39535;52.192;9.886;2023-01-04T15:37:45;3.37;;;2.47;;
13951;SDS011;39535;52.192;9.886;2023-01-04T15:40:14;2.70;;;1.83;;
13951;SDS011;39535;52.192;9.886;2023-01-04T15:42:43;2.03;;;1.70;;
13951;SDS011;39535;52.192;9.886;2023-01-04T15:45:25;2.50;;;1.83;;
13951;SDS011;39535;52.192;9.886;2023-01-04T15:47:52;2.30;;;2.10;;
13951;SDS011;39535;52.192;9.886;2023-01-04T15:50:21;3.10;;;2.20;;